JIA2402 MDSD-MUHA
Flight info
| Callsign | JIA2402 |
|---|---|
| Flight time | 2h 10m |
| Altitude | 36000 |
| Route | RETAK DCT ALBBE M348 MEDKO UM348 UVA |
| Aircraft | CRJ9/M-SDFGIRWY/S |
Departure
| Time | 2026-04-27 17:18 |
|---|---|
| Airport | Las Américas International Airport (MDSD) |
Arrival
| Time | 2026-04-27 19:29 |
|---|---|
| Airport | José Martí International Airport (MUHA) |
| Time | Latitude | Longitude | Altitude | Speed | Heading |
|---|---|---|---|---|---|
| 2026-04-27 17:01 | 18.43159 | -69.67560 | 61 ft | 0 kts | 241° |
| 2026-04-27 17:11 | 18.43164 | -69.67551 | 58 ft | 2 kts | 244° |
| 2026-04-27 17:11 | 18.43170 | -69.67535 | 58 ft | 2 kts | 251° |
| 2026-04-27 17:12 | 18.43174 | -69.67501 | 54 ft | 2 kts | 281° |
| 2026-04-27 17:12 | 18.43168 | -69.67486 | 61 ft | 2 kts | 310° |
| 2026-04-27 17:12 | 18.43156 | -69.67476 | 58 ft | 1 kts | 334° |
| 2026-04-27 17:13 | 18.43152 | -69.67474 | 53 ft | 0 kts | 339° |
| 2026-04-27 17:14 | 18.43159 | -69.67477 | 53 ft | 3 kts | 339° |
| 2026-04-27 17:14 | 18.43194 | -69.67490 | 55 ft | 8 kts | 340° |
| 2026-04-27 17:14 | 18.43289 | -69.67523 | 57 ft | 14 kts | 342° |
| 2026-04-27 17:14 | 18.43352 | -69.67521 | 57 ft | 15 kts | 35° |
| 2026-04-27 17:15 | 18.43438 | -69.67438 | 55 ft | 19 kts | 46° |
| 2026-04-27 17:15 | 18.43532 | -69.67335 | 58 ft | 12 kts | 44° |
| 2026-04-27 17:15 | 18.43622 | -69.67331 | 53 ft | 16 kts | 342° |
| 2026-04-27 17:15 | 18.43739 | -69.67376 | 55 ft | 20 kts | 340° |
| 2026-04-27 17:16 | 18.43884 | -69.67431 | 55 ft | 24 kts | 342° |
| 2026-04-27 17:16 | 18.44055 | -69.67491 | 52 ft | 28 kts | 340° |
| 2026-04-27 17:16 | 18.44228 | -69.67553 | 55 ft | 15 kts | 353° |
| 2026-04-27 17:16 | 18.44333 | -69.67509 | 55 ft | 18 kts | 36° |
| 2026-04-27 17:17 | 18.44369 | -69.67404 | 55 ft | 13 kts | 139° |
| 2026-04-27 17:17 | 18.44308 | -69.67388 | 55 ft | 0 kts | 161° |
| 2026-04-27 17:17 | 18.44307 | -69.67388 | 55 ft | 7 kts | 161° |
| 2026-04-27 17:18 | 18.43210 | -69.66982 | 64 ft | 150 kts | 160° |
| 2026-04-27 17:18 | 18.42094 | -69.66561 | 396 ft | 176 kts | 160° |
| 2026-04-27 17:18 | 18.40935 | -69.66055 | 1188 ft | 189 kts | 156° |
| 2026-04-27 17:18 | 18.39667 | -69.65498 | 1910 ft | 206 kts | 162° |
| 2026-04-27 17:19 | 18.38348 | -69.64809 | 2525 ft | 220 kts | 134° |
| 2026-04-27 17:19 | 18.37646 | -69.63327 | 3034 ft | 242 kts | 96° |
| 2026-04-27 17:19 | 18.37781 | -69.61535 | 3642 ft | 258 kts | 77° |
| 2026-04-27 17:19 | 18.38350 | -69.59693 | 4326 ft | 270 kts | 70° |
| 2026-04-27 17:20 | 18.39062 | -69.57832 | 5143 ft | 276 kts | 66° |
| 2026-04-27 17:20 | 18.40295 | -69.56274 | 5917 ft | 285 kts | 33° |
| 2026-04-27 17:20 | 18.42182 | -69.55657 | 6694 ft | 289 kts | 1° |
| 2026-04-27 17:20 | 18.44190 | -69.55874 | 7443 ft | 292 kts | 341° |
| 2026-04-27 17:21 | 18.45940 | -69.56928 | 8193 ft | 292 kts | 318° |
| 2026-04-27 17:21 | 18.47471 | -69.58352 | 8966 ft | 295 kts | 313° |
| 2026-04-27 17:21 | 18.48894 | -69.59926 | 9740 ft | 298 kts | 307° |
| 2026-04-27 17:21 | 18.50187 | -69.61606 | 10544 ft | 296 kts | 304° |
| 2026-04-27 17:22 | 18.51460 | -69.63387 | 10842 ft | 318 kts | 303° |
| 2026-04-27 17:22 | 18.52823 | -69.65354 | 10968 ft | 344 kts | 303° |
| 2026-04-27 17:22 | 18.54313 | -69.67434 | 11225 ft | 365 kts | 305° |
| 2026-04-27 17:22 | 18.55532 | -69.69077 | 11461 ft | 378 kts | 306° |
| 2026-04-27 17:23 | 18.57198 | -69.71291 | 11853 ft | 391 kts | 305° |
| 2026-04-27 17:23 | 18.58875 | -69.73538 | 12703 ft | 389 kts | 305° |
| 2026-04-27 17:23 | 18.60539 | -69.75782 | 13580 ft | 387 kts | 305° |
| 2026-04-27 17:23 | 18.62195 | -69.78014 | 14351 ft | 386 kts | 304° |
| 2026-04-27 17:24 | 18.63823 | -69.80209 | 15126 ft | 384 kts | 304° |
| 2026-04-27 17:24 | 18.65462 | -69.82418 | 15887 ft | 382 kts | 304° |
| 2026-04-27 17:24 | 18.67099 | -69.84628 | 16651 ft | 380 kts | 304° |
| 2026-04-27 17:24 | 18.68723 | -69.86820 | 17463 ft | 377 kts | 304° |
| 2026-04-27 17:25 | 18.70336 | -69.88999 | 18212 ft | 376 kts | 305° |
| 2026-04-27 17:25 | 18.71940 | -69.91166 | 18868 ft | 374 kts | 305° |
| 2026-04-27 17:25 | 18.73536 | -69.93320 | 19520 ft | 371 kts | 304° |
| 2026-04-27 17:25 | 18.75121 | -69.95461 | 20174 ft | 369 kts | 304° |
| 2026-04-27 17:26 | 18.76695 | -69.97590 | 20816 ft | 366 kts | 304° |
| 2026-04-27 17:26 | 18.78237 | -69.99677 | 21413 ft | 364 kts | 304° |
| 2026-04-27 17:26 | 18.79791 | -70.01780 | 22021 ft | 362 kts | 304° |
| 2026-04-27 17:26 | 18.81340 | -70.03877 | 22459 ft | 366 kts | 304° |
| 2026-04-27 17:27 | 18.82939 | -70.06044 | 22437 ft | 382 kts | 304° |
| 2026-04-27 17:27 | 18.84601 | -70.08296 | 22482 ft | 396 kts | 304° |
| 2026-04-27 17:27 | 18.86323 | -70.10630 | 22519 ft | 409 kts | 304° |
| 2026-04-27 17:27 | 18.88096 | -70.13036 | 22552 ft | 421 kts | 304° |
| 2026-04-27 17:28 | 18.89904 | -70.15483 | 23004 ft | 421 kts | 304° |
| 2026-04-27 17:28 | 18.91698 | -70.17920 | 23559 ft | 419 kts | 304° |
| 2026-04-27 17:28 | 18.95268 | -70.22761 | 24455 ft | 416 kts | 304° |
| 2026-04-27 17:29 | 18.97040 | -70.25168 | 24905 ft | 414 kts | 304° |
| 2026-04-27 17:29 | 18.98805 | -70.27569 | 25342 ft | 413 kts | 304° |
| 2026-04-27 17:29 | 19.00565 | -70.29962 | 25773 ft | 412 kts | 303° |
| 2026-04-27 17:29 | 19.02321 | -70.32350 | 26194 ft | 411 kts | 303° |
| 2026-04-27 17:30 | 19.04071 | -70.34730 | 26613 ft | 409 kts | 303° |
| 2026-04-27 17:30 | 19.07523 | -70.39418 | 27488 ft | 405 kts | 302° |
| 2026-04-27 17:30 | 19.09243 | -70.41769 | 27855 ft | 404 kts | 302° |
| 2026-04-27 17:31 | 19.10967 | -70.44121 | 28180 ft | 404 kts | 302° |
| 2026-04-27 17:31 | 19.12695 | -70.46476 | 28558 ft | 403 kts | 302° |
| 2026-04-27 17:31 | 19.14420 | -70.48816 | 28938 ft | 401 kts | 302° |
| 2026-04-27 17:31 | 19.16127 | -70.51143 | 29328 ft | 400 kts | 301° |
| 2026-04-27 17:32 | 19.17830 | -70.53477 | 29685 ft | 399 kts | 302° |
| 2026-04-27 17:32 | 19.21185 | -70.58054 | 30442 ft | 395 kts | 301° |
| 2026-04-27 17:32 | 19.22873 | -70.60357 | 30638 ft | 396 kts | 301° |
| 2026-04-27 17:33 | 19.24556 | -70.62664 | 30913 ft | 395 kts | 301° |
| 2026-04-27 17:33 | 19.26241 | -70.64954 | 31245 ft | 393 kts | 301° |
| 2026-04-27 17:33 | 19.27914 | -70.67243 | 31487 ft | 392 kts | 300° |
| 2026-04-27 17:33 | 19.29584 | -70.69532 | 31754 ft | 392 kts | 300° |
| 2026-04-27 17:34 | 19.31247 | -70.71812 | 31994 ft | 391 kts | 300° |
| 2026-04-27 17:34 | 19.32914 | -70.74093 | 32258 ft | 391 kts | 300° |
| 2026-04-27 17:34 | 19.34578 | -70.76369 | 32480 ft | 391 kts | 300° |
| 2026-04-27 17:34 | 19.36216 | -70.78614 | 32690 ft | 391 kts | 300° |
| 2026-04-27 17:35 | 19.37889 | -70.80872 | 32954 ft | 390 kts | 300° |
| 2026-04-27 17:35 | 19.39571 | -70.83131 | 33161 ft | 389 kts | 300° |
| 2026-04-27 17:35 | 19.41241 | -70.85383 | 33432 ft | 388 kts | 299° |
| 2026-04-27 17:35 | 19.42894 | -70.87640 | 33669 ft | 387 kts | 299° |
| 2026-04-27 17:36 | 19.44539 | -70.89888 | 33955 ft | 385 kts | 298° |
| 2026-04-27 17:36 | 19.46177 | -70.92142 | 34096 ft | 386 kts | 298° |
| 2026-04-27 17:36 | 19.47806 | -70.94392 | 34294 ft | 385 kts | 298° |
| 2026-04-27 17:36 | 19.49425 | -70.96646 | 34465 ft | 385 kts | 298° |
| 2026-04-27 17:37 | 19.51055 | -70.98893 | 34637 ft | 385 kts | 298° |
| 2026-04-27 17:37 | 19.52696 | -71.01136 | 34804 ft | 385 kts | 298° |
| 2026-04-27 17:37 | 19.54326 | -71.03380 | 34963 ft | 384 kts | 298° |
| 2026-04-27 17:37 | 19.55957 | -71.05622 | 35116 ft | 384 kts | 298° |
| 2026-04-27 17:38 | 19.57587 | -71.07870 | 35257 ft | 384 kts | 298° |
| 2026-04-27 17:38 | 19.59215 | -71.10112 | 35379 ft | 384 kts | 298° |
| 2026-04-27 17:38 | 19.60822 | -71.12325 | 35534 ft | 384 kts | 298° |
| 2026-04-27 17:38 | 19.62471 | -71.14598 | 35684 ft | 383 kts | 298° |
| 2026-04-27 17:39 | 19.64073 | -71.16814 | 35772 ft | 384 kts | 298° |
| 2026-04-27 17:39 | 19.67342 | -71.21321 | 35949 ft | 387 kts | 298° |
| 2026-04-27 17:40 | 19.70649 | -71.25890 | 36008 ft | 393 kts | 298° |
| 2026-04-27 17:40 | 19.74008 | -71.30536 | 36032 ft | 400 kts | 298° |
| 2026-04-27 17:41 | 19.77403 | -71.35272 | 36031 ft | 406 kts | 298° |
| 2026-04-27 17:41 | 19.80848 | -71.40054 | 36048 ft | 408 kts | 299° |
| 2026-04-27 17:42 | 19.84325 | -71.44847 | 36031 ft | 410 kts | 299° |
| 2026-04-27 17:42 | 19.87780 | -71.49660 | 36001 ft | 408 kts | 298° |
| 2026-04-27 17:43 | 19.91209 | -71.54464 | 35999 ft | 408 kts | 298° |
| 2026-04-27 17:43 | 19.94635 | -71.59224 | 36019 ft | 408 kts | 299° |
| 2026-04-27 17:44 | 19.98079 | -71.64011 | 36019 ft | 408 kts | 299° |
| 2026-04-27 17:44 | 20.01518 | -71.68798 | 36017 ft | 408 kts | 299° |
| 2026-04-27 17:45 | 20.04962 | -71.73589 | 36021 ft | 407 kts | 298° |
| 2026-04-27 17:45 | 20.08407 | -71.78387 | 36021 ft | 407 kts | 298° |
| 2026-04-27 17:46 | 20.11843 | -71.83179 | 36021 ft | 407 kts | 298° |
| 2026-04-27 17:46 | 20.15257 | -71.87944 | 36021 ft | 407 kts | 298° |
| 2026-04-27 17:47 | 20.18690 | -71.92742 | 36040 ft | 407 kts | 299° |
| 2026-04-27 17:47 | 20.22130 | -71.97546 | 36030 ft | 408 kts | 299° |
| 2026-04-27 17:48 | 20.25565 | -72.02351 | 36025 ft | 408 kts | 299° |
| 2026-04-27 17:48 | 20.29002 | -72.07165 | 36024 ft | 408 kts | 299° |
| 2026-04-27 17:49 | 20.32434 | -72.11972 | 36022 ft | 407 kts | 298° |
| 2026-04-27 17:49 | 20.35839 | -72.16749 | 36026 ft | 407 kts | 298° |
| 2026-04-27 17:50 | 20.38715 | -72.20783 | 36027 ft | 407 kts | 298° |
| 2026-04-27 17:50 | 20.43539 | -72.29197 | 36035 ft | 392 kts | 284° |
| 2026-04-27 17:51 | 20.45462 | -72.34594 | 36031 ft | 391 kts | 284° |
| 2026-04-27 17:51 | 20.47482 | -72.39998 | 36030 ft | 393 kts | 285° |
| 2026-04-27 17:52 | 20.49560 | -72.45389 | 36028 ft | 393 kts | 285° |
| 2026-04-27 17:52 | 20.51302 | -72.49908 | 36027 ft | 393 kts | 285° |
| 2026-04-27 17:53 | 20.53712 | -72.56177 | 36028 ft | 393 kts | 285° |
| 2026-04-27 17:53 | 20.55781 | -72.61570 | 36027 ft | 393 kts | 285° |
| 2026-04-27 17:54 | 20.57854 | -72.66975 | 36023 ft | 393 kts | 285° |
| 2026-04-27 17:54 | 20.59927 | -72.72380 | 36027 ft | 393 kts | 285° |
| 2026-04-27 17:55 | 20.61994 | -72.77780 | 36028 ft | 393 kts | 285° |
| 2026-04-27 17:55 | 20.64066 | -72.83191 | 36027 ft | 393 kts | 285° |
| 2026-04-27 17:56 | 20.66130 | -72.88598 | 36027 ft | 393 kts | 285° |
| 2026-04-27 17:56 | 20.68194 | -72.94006 | 36030 ft | 393 kts | 285° |
| 2026-04-27 17:57 | 20.70258 | -72.99423 | 36030 ft | 393 kts | 286° |
| 2026-04-27 17:57 | 20.72320 | -73.04839 | 36031 ft | 394 kts | 286° |
| 2026-04-27 17:58 | 20.74368 | -73.10224 | 36032 ft | 394 kts | 286° |
| 2026-04-27 17:58 | 20.76429 | -73.15647 | 36032 ft | 394 kts | 286° |
| 2026-04-27 17:59 | 20.78486 | -73.21069 | 36032 ft | 394 kts | 286° |
| 2026-04-27 17:59 | 20.80545 | -73.26497 | 36032 ft | 394 kts | 286° |
| 2026-04-27 18:00 | 20.82602 | -73.31931 | 36035 ft | 394 kts | 286° |
| 2026-04-27 18:00 | 20.84660 | -73.37372 | 36034 ft | 394 kts | 286° |
| 2026-04-27 18:01 | 20.86370 | -73.41894 | 36032 ft | 395 kts | 286° |
| 2026-04-27 18:01 | 20.88426 | -73.47343 | 36031 ft | 395 kts | 286° |
| 2026-04-27 18:02 | 20.90481 | -73.52790 | 36031 ft | 395 kts | 286° |
| 2026-04-27 18:02 | 20.92869 | -73.59128 | 36031 ft | 395 kts | 286° |
| 2026-04-27 18:03 | 20.94589 | -73.63699 | 36032 ft | 395 kts | 286° |
| 2026-04-27 18:03 | 20.96636 | -73.69165 | 36033 ft | 395 kts | 286° |
| 2026-04-27 18:04 | 20.98541 | -73.74643 | 36031 ft | 395 kts | 285° |
| 2026-04-27 18:04 | 21.00420 | -73.80171 | 36041 ft | 395 kts | 285° |
| 2026-04-27 18:05 | 21.02296 | -73.85703 | 36040 ft | 396 kts | 285° |
| 2026-04-27 18:05 | 21.04176 | -73.91247 | 36034 ft | 396 kts | 285° |
| 2026-04-27 18:06 | 21.06042 | -73.96763 | 36032 ft | 396 kts | 285° |
| 2026-04-27 18:06 | 21.07920 | -74.02323 | 36030 ft | 396 kts | 285° |
| 2026-04-27 18:07 | 21.09795 | -74.07878 | 36029 ft | 397 kts | 285° |
| 2026-04-27 18:07 | 21.11673 | -74.13442 | 36032 ft | 397 kts | 285° |
| 2026-04-27 18:08 | 21.13548 | -74.19005 | 36032 ft | 397 kts | 285° |
| 2026-04-27 18:08 | 21.15420 | -74.24574 | 36030 ft | 397 kts | 285° |
| 2026-04-27 18:09 | 21.17293 | -74.30148 | 36030 ft | 398 kts | 285° |
| 2026-04-27 18:09 | 21.19168 | -74.35727 | 36029 ft | 398 kts | 285° |
| 2026-04-27 18:10 | 21.21031 | -74.41272 | 36031 ft | 398 kts | 285° |
| 2026-04-27 18:10 | 21.22890 | -74.46867 | 36034 ft | 398 kts | 284° |
| 2026-04-27 18:11 | 21.24731 | -74.52471 | 36036 ft | 399 kts | 285° |
| 2026-04-27 18:11 | 21.26619 | -74.58069 | 36034 ft | 399 kts | 285° |
| 2026-04-27 18:12 | 21.28496 | -74.63635 | 36032 ft | 399 kts | 285° |
| 2026-04-27 18:12 | 21.30374 | -74.69246 | 36032 ft | 399 kts | 285° |
| 2026-04-27 18:13 | 21.32250 | -74.74853 | 36026 ft | 399 kts | 285° |
| 2026-04-27 18:13 | 21.34128 | -74.80466 | 36026 ft | 400 kts | 285° |
| 2026-04-27 18:14 | 21.36006 | -74.86084 | 36029 ft | 400 kts | 285° |
| 2026-04-27 18:14 | 21.37882 | -74.91710 | 36030 ft | 400 kts | 285° |
| 2026-04-27 18:15 | 21.39755 | -74.97333 | 36027 ft | 400 kts | 285° |
| 2026-04-27 18:15 | 21.41616 | -75.02924 | 36032 ft | 401 kts | 285° |
| 2026-04-27 18:16 | 21.43488 | -75.08563 | 36030 ft | 401 kts | 285° |
| 2026-04-27 18:16 | 21.45361 | -75.14205 | 36032 ft | 401 kts | 285° |
| 2026-04-27 18:17 | 21.47235 | -75.19847 | 36041 ft | 401 kts | 285° |
| 2026-04-27 18:17 | 21.49109 | -75.25504 | 36030 ft | 402 kts | 285° |
| 2026-04-27 18:18 | 21.50979 | -75.31164 | 36031 ft | 402 kts | 285° |
| 2026-04-27 18:18 | 21.52847 | -75.36821 | 36028 ft | 402 kts | 285° |
| 2026-04-27 18:19 | 21.54713 | -75.42477 | 36028 ft | 402 kts | 285° |
| 2026-04-27 18:19 | 21.56575 | -75.48140 | 36028 ft | 402 kts | 285° |
| 2026-04-27 18:20 | 21.58427 | -75.53762 | 36029 ft | 402 kts | 285° |
| 2026-04-27 18:20 | 21.60290 | -75.59431 | 36026 ft | 402 kts | 285° |
| 2026-04-27 18:21 | 21.62148 | -75.65095 | 36027 ft | 402 kts | 285° |
| 2026-04-27 18:21 | 21.64009 | -75.70765 | 36026 ft | 402 kts | 285° |
| 2026-04-27 18:22 | 21.65864 | -75.76437 | 36038 ft | 402 kts | 285° |
| 2026-04-27 18:22 | 21.67716 | -75.82115 | 36028 ft | 402 kts | 285° |
| 2026-04-27 18:23 | 21.69573 | -75.87795 | 36026 ft | 402 kts | 285° |
| 2026-04-27 18:23 | 21.71427 | -75.93474 | 36032 ft | 402 kts | 285° |
| 2026-04-27 18:24 | 21.73275 | -75.99152 | 36033 ft | 402 kts | 285° |
| 2026-04-27 18:24 | 21.75121 | -76.04830 | 36032 ft | 402 kts | 285° |
| 2026-04-27 18:25 | 21.76967 | -76.10513 | 36028 ft | 402 kts | 285° |
| 2026-04-27 18:25 | 21.78810 | -76.16198 | 36040 ft | 402 kts | 285° |
| 2026-04-27 18:26 | 21.80639 | -76.21847 | 36032 ft | 402 kts | 285° |
| 2026-04-27 18:26 | 21.82487 | -76.27550 | 36031 ft | 402 kts | 285° |
| 2026-04-27 18:27 | 21.84324 | -76.33236 | 36037 ft | 402 kts | 285° |
| 2026-04-27 18:27 | 21.86160 | -76.38927 | 36029 ft | 402 kts | 285° |
| 2026-04-27 18:28 | 21.87994 | -76.44619 | 36031 ft | 402 kts | 285° |
| 2026-04-27 18:28 | 21.89815 | -76.50277 | 36058 ft | 402 kts | 285° |
| 2026-04-27 18:29 | 21.91643 | -76.55973 | 36040 ft | 402 kts | 285° |
| 2026-04-27 18:29 | 21.93471 | -76.61664 | 36035 ft | 402 kts | 285° |
| 2026-04-27 18:30 | 21.95299 | -76.67359 | 36036 ft | 402 kts | 285° |
| 2026-04-27 18:30 | 21.97119 | -76.73048 | 36035 ft | 402 kts | 285° |
| 2026-04-27 18:31 | 21.98938 | -76.78739 | 36032 ft | 401 kts | 285° |
| 2026-04-27 18:31 | 22.00754 | -76.84426 | 36032 ft | 401 kts | 285° |
| 2026-04-27 18:32 | 22.02562 | -76.90109 | 36031 ft | 401 kts | 285° |
| 2026-04-27 18:32 | 22.04373 | -76.95791 | 36030 ft | 401 kts | 285° |
| 2026-04-27 18:33 | 22.06184 | -77.01473 | 36030 ft | 400 kts | 285° |
| 2026-04-27 18:33 | 22.07985 | -77.07159 | 36034 ft | 400 kts | 285° |
| 2026-04-27 18:34 | 22.09783 | -77.12839 | 36031 ft | 400 kts | 285° |
| 2026-04-27 18:34 | 22.11569 | -77.18483 | 36031 ft | 400 kts | 285° |
| 2026-04-27 18:35 | 22.13363 | -77.24168 | 36025 ft | 400 kts | 285° |
| 2026-04-27 18:35 | 22.15153 | -77.29852 | 36029 ft | 400 kts | 285° |
| 2026-04-27 18:36 | 22.16949 | -77.35535 | 36032 ft | 400 kts | 285° |
| 2026-04-27 18:36 | 22.18741 | -77.41223 | 36032 ft | 400 kts | 285° |
| 2026-04-27 18:37 | 22.20530 | -77.46916 | 36032 ft | 400 kts | 285° |
| 2026-04-27 18:37 | 22.22306 | -77.52569 | 36026 ft | 400 kts | 285° |
| 2026-04-27 18:38 | 22.24091 | -77.58259 | 36028 ft | 400 kts | 285° |
| 2026-04-27 18:38 | 22.25868 | -77.63958 | 36028 ft | 400 kts | 286° |
| 2026-04-27 18:39 | 22.27654 | -77.69648 | 36030 ft | 400 kts | 286° |
| 2026-04-27 18:39 | 22.29437 | -77.75348 | 36029 ft | 400 kts | 286° |
| 2026-04-27 18:40 | 22.31212 | -77.81047 | 36026 ft | 400 kts | 286° |
| 2026-04-27 18:40 | 22.32989 | -77.86755 | 36046 ft | 401 kts | 286° |
| 2026-04-27 18:41 | 22.34766 | -77.92465 | 36031 ft | 401 kts | 286° |
| 2026-04-27 18:41 | 22.36537 | -77.98174 | 36024 ft | 401 kts | 286° |
| 2026-04-27 18:42 | 22.38009 | -78.02922 | 36024 ft | 401 kts | 286° |
| 2026-04-27 18:42 | 22.40071 | -78.09564 | 36025 ft | 401 kts | 286° |
| 2026-04-27 18:43 | 22.41836 | -78.15271 | 36024 ft | 400 kts | 286° |
| 2026-04-27 18:43 | 22.43611 | -78.21018 | 36030 ft | 400 kts | 286° |
| 2026-04-27 18:44 | 22.45360 | -78.26689 | 36024 ft | 400 kts | 286° |
| 2026-04-27 18:44 | 22.46982 | -78.32444 | 36027 ft | 399 kts | 282° |
| 2026-04-27 18:45 | 22.48146 | -78.38304 | 36032 ft | 399 kts | 279° |
| 2026-04-27 18:45 | 22.49180 | -78.44201 | 36023 ft | 399 kts | 279° |
| 2026-04-27 18:46 | 22.50249 | -78.50090 | 36025 ft | 399 kts | 280° |
| 2026-04-27 18:46 | 22.51344 | -78.55977 | 36024 ft | 399 kts | 280° |
| 2026-04-27 18:47 | 22.52439 | -78.61859 | 36023 ft | 399 kts | 280° |
| 2026-04-27 18:47 | 22.53526 | -78.67711 | 36025 ft | 399 kts | 280° |
| 2026-04-27 18:48 | 22.54617 | -78.73593 | 36016 ft | 399 kts | 280° |
| 2026-04-27 18:48 | 22.55529 | -78.78529 | 36019 ft | 399 kts | 280° |
| 2026-04-27 18:49 | 22.56617 | -78.84415 | 36018 ft | 399 kts | 280° |
| 2026-04-27 18:49 | 22.57697 | -78.90273 | 36019 ft | 399 kts | 280° |
| 2026-04-27 18:50 | 22.58780 | -78.96163 | 36021 ft | 399 kts | 280° |
| 2026-04-27 18:50 | 22.59864 | -79.02065 | 36018 ft | 399 kts | 280° |
| 2026-04-27 18:51 | 22.60934 | -79.07926 | 36022 ft | 399 kts | 280° |
| 2026-04-27 18:51 | 22.62011 | -79.13820 | 36028 ft | 399 kts | 280° |
| 2026-04-27 18:52 | 22.63087 | -79.19716 | 36026 ft | 399 kts | 280° |
| 2026-04-27 18:53 | 22.64697 | -79.28577 | 36019 ft | 400 kts | 280° |
| 2026-04-27 18:53 | 22.65769 | -79.34485 | 36024 ft | 400 kts | 280° |
| 2026-04-27 18:54 | 22.66838 | -79.40394 | 36023 ft | 400 kts | 280° |
| 2026-04-27 18:54 | 22.67899 | -79.46267 | 36015 ft | 400 kts | 280° |
| 2026-04-27 18:55 | 22.68964 | -79.52181 | 36018 ft | 400 kts | 281° |
| 2026-04-27 18:55 | 22.70026 | -79.58100 | 36020 ft | 400 kts | 281° |
| 2026-04-27 18:56 | 22.71088 | -79.64020 | 36020 ft | 400 kts | 280° |
| 2026-04-27 18:56 | 22.72147 | -79.69950 | 36020 ft | 401 kts | 280° |
| 2026-04-27 18:57 | 22.73210 | -79.75877 | 36021 ft | 401 kts | 281° |
| 2026-04-27 18:57 | 22.74256 | -79.81771 | 36014 ft | 401 kts | 281° |
| 2026-04-27 18:58 | 22.75308 | -79.87709 | 36016 ft | 401 kts | 281° |
| 2026-04-27 18:58 | 22.76360 | -79.93649 | 36017 ft | 402 kts | 281° |
| 2026-04-27 18:59 | 22.77411 | -79.99601 | 36018 ft | 402 kts | 281° |
| 2026-04-27 18:59 | 22.78462 | -80.05550 | 36016 ft | 402 kts | 281° |
| 2026-04-27 19:00 | 22.79512 | -80.11513 | 36014 ft | 403 kts | 281° |
| 2026-04-27 19:00 | 22.80556 | -80.17477 | 36030 ft | 403 kts | 281° |
| 2026-04-27 19:01 | 22.81602 | -80.23455 | 36025 ft | 403 kts | 281° |
| 2026-04-27 19:01 | 22.82647 | -80.29433 | 36019 ft | 404 kts | 281° |
| 2026-04-27 19:02 | 22.83689 | -80.35422 | 36020 ft | 404 kts | 281° |
| 2026-04-27 19:02 | 22.84735 | -80.41428 | 36019 ft | 404 kts | 281° |
| 2026-04-27 19:03 | 22.85767 | -80.47384 | 36023 ft | 405 kts | 281° |
| 2026-04-27 19:03 | 22.86806 | -80.53383 | 36020 ft | 405 kts | 281° |
| 2026-04-27 19:04 | 22.87842 | -80.59389 | 36020 ft | 405 kts | 281° |
| 2026-04-27 19:04 | 22.88878 | -80.65399 | 36016 ft | 405 kts | 281° |
| 2026-04-27 19:05 | 22.89913 | -80.71421 | 36018 ft | 406 kts | 281° |
| 2026-04-27 19:05 | 22.90945 | -80.77440 | 36017 ft | 406 kts | 281° |
| 2026-04-27 19:05 | 22.91456 | -80.80417 | 35853 ft | 410 kts | 281° |
| 2026-04-27 19:06 | 22.91980 | -80.83477 | 35373 ft | 411 kts | 281° |
| 2026-04-27 19:06 | 22.92499 | -80.86518 | 34887 ft | 408 kts | 281° |
| 2026-04-27 19:06 | 22.93013 | -80.89538 | 34435 ft | 406 kts | 281° |
| 2026-04-27 19:06 | 22.93527 | -80.92540 | 33967 ft | 404 kts | 281° |
| 2026-04-27 19:07 | 22.94034 | -80.95533 | 33441 ft | 402 kts | 281° |
| 2026-04-27 19:07 | 22.94541 | -80.98511 | 32931 ft | 401 kts | 281° |
| 2026-04-27 19:07 | 22.95043 | -81.01476 | 32434 ft | 399 kts | 281° |
| 2026-04-27 19:07 | 22.95546 | -81.04431 | 31945 ft | 397 kts | 281° |
| 2026-04-27 19:08 | 22.96045 | -81.07378 | 31470 ft | 396 kts | 281° |
| 2026-04-27 19:08 | 22.96541 | -81.10313 | 31004 ft | 394 kts | 281° |
| 2026-04-27 19:08 | 22.97029 | -81.13203 | 30554 ft | 393 kts | 281° |
| 2026-04-27 19:08 | 22.97521 | -81.16120 | 30102 ft | 392 kts | 281° |
| 2026-04-27 19:09 | 22.98011 | -81.19029 | 29575 ft | 391 kts | 282° |
| 2026-04-27 19:09 | 22.98500 | -81.21931 | 29055 ft | 390 kts | 282° |
| 2026-04-27 19:09 | 22.98986 | -81.24824 | 28545 ft | 389 kts | 282° |
| 2026-04-27 19:09 | 22.99472 | -81.27714 | 28060 ft | 388 kts | 282° |
| 2026-04-27 19:10 | 22.99955 | -81.30596 | 27546 ft | 388 kts | 282° |
| 2026-04-27 19:10 | 23.00439 | -81.33479 | 27061 ft | 387 kts | 282° |
| 2026-04-27 19:10 | 23.00914 | -81.36316 | 26590 ft | 387 kts | 282° |
| 2026-04-27 19:10 | 23.01239 | -81.38259 | 26276 ft | 387 kts | 282° |
| 2026-04-27 19:11 | 23.01762 | -81.42088 | 25649 ft | 390 kts | 273° |
| 2026-04-27 19:11 | 23.01383 | -81.45023 | 25200 ft | 395 kts | 261° |
| 2026-04-27 19:11 | 23.00754 | -81.47929 | 24756 ft | 396 kts | 260° |
| 2026-04-27 19:11 | 23.00028 | -81.50821 | 24313 ft | 399 kts | 255° |
| 2026-04-27 19:12 | 22.98935 | -81.53607 | 23868 ft | 404 kts | 248° |
| 2026-04-27 19:12 | 22.97628 | -81.56313 | 23353 ft | 406 kts | 246° |
| 2026-04-27 19:12 | 22.96292 | -81.59016 | 22813 ft | 407 kts | 246° |
| 2026-04-27 19:12 | 22.94983 | -81.61743 | 22298 ft | 407 kts | 248° |
| 2026-04-27 19:13 | 22.93730 | -81.64490 | 21772 ft | 407 kts | 248° |
| 2026-04-27 19:13 | 22.92482 | -81.67248 | 21255 ft | 408 kts | 248° |
| 2026-04-27 19:13 | 22.91222 | -81.70013 | 20752 ft | 409 kts | 248° |
| 2026-04-27 19:13 | 22.89976 | -81.72746 | 20259 ft | 409 kts | 247° |
| 2026-04-27 19:14 | 22.88713 | -81.75525 | 19755 ft | 410 kts | 247° |
| 2026-04-27 19:14 | 22.87447 | -81.78297 | 19277 ft | 411 kts | 247° |
| 2026-04-27 19:14 | 22.86178 | -81.81076 | 18792 ft | 411 kts | 247° |
| 2026-04-27 19:14 | 22.84907 | -81.83852 | 18319 ft | 411 kts | 246° |
| 2026-04-27 19:15 | 22.83635 | -81.86639 | 17769 ft | 411 kts | 246° |
| 2026-04-27 19:15 | 22.82381 | -81.89378 | 17243 ft | 400 kts | 246° |
| 2026-04-27 19:15 | 22.81159 | -81.92043 | 16720 ft | 389 kts | 246° |
| 2026-04-27 19:15 | 22.79971 | -81.94640 | 16222 ft | 380 kts | 246° |
| 2026-04-27 19:16 | 22.78813 | -81.97174 | 15737 ft | 368 kts | 246° |
| 2026-04-27 19:16 | 22.78069 | -81.98793 | 15415 ft | 357 kts | 246° |
| 2026-04-27 19:16 | 22.76628 | -82.01929 | 14823 ft | 338 kts | 246° |
| 2026-04-27 19:16 | 22.75597 | -82.04177 | 14402 ft | 327 kts | 246° |
| 2026-04-27 19:17 | 22.74613 | -82.06320 | 14005 ft | 317 kts | 246° |
| 2026-04-27 19:17 | 22.73647 | -82.08431 | 13594 ft | 308 kts | 246° |
| 2026-04-27 19:17 | 22.72705 | -82.10477 | 13169 ft | 300 kts | 245° |
| 2026-04-27 19:17 | 22.71786 | -82.12476 | 12766 ft | 293 kts | 246° |
| 2026-04-27 19:18 | 22.70888 | -82.14431 | 12369 ft | 286 kts | 246° |
| 2026-04-27 19:18 | 22.70025 | -82.16343 | 11994 ft | 280 kts | 246° |
| 2026-04-27 19:18 | 22.69167 | -82.18213 | 11635 ft | 274 kts | 245° |
| 2026-04-27 19:18 | 22.68320 | -82.20045 | 11286 ft | 269 kts | 245° |
| 2026-04-27 19:19 | 22.67588 | -82.21877 | 10945 ft | 260 kts | 261° |
| 2026-04-27 19:19 | 22.67566 | -82.23156 | 10762 ft | 254 kts | 281° |
| 2026-04-27 19:19 | 22.68044 | -82.24979 | 10490 ft | 250 kts | 293° |
| 2026-04-27 19:19 | 22.68765 | -82.26653 | 10211 ft | 247 kts | 297° |
| 2026-04-27 19:20 | 22.69553 | -82.28298 | 9925 ft | 245 kts | 298° |
| 2026-04-27 19:20 | 22.70328 | -82.29940 | 9599 ft | 244 kts | 296° |
| 2026-04-27 19:20 | 22.71056 | -82.31594 | 9275 ft | 242 kts | 295° |
| 2026-04-27 19:20 | 22.71753 | -82.33250 | 8957 ft | 241 kts | 295° |
| 2026-04-27 19:21 | 22.72452 | -82.34897 | 8647 ft | 240 kts | 295° |
| 2026-04-27 19:21 | 22.73141 | -82.36513 | 8345 ft | 238 kts | 295° |
| 2026-04-27 19:21 | 22.73833 | -82.38137 | 8042 ft | 236 kts | 295° |
| 2026-04-27 19:21 | 22.74521 | -82.39749 | 7743 ft | 235 kts | 295° |
| 2026-04-27 19:22 | 22.75206 | -82.41354 | 7429 ft | 233 kts | 296° |
| 2026-04-27 19:22 | 22.75886 | -82.42945 | 7135 ft | 232 kts | 296° |
| 2026-04-27 19:22 | 22.76555 | -82.44530 | 6847 ft | 230 kts | 296° |
| 2026-04-27 19:22 | 22.77218 | -82.46084 | 6556 ft | 228 kts | 296° |
| 2026-04-27 19:23 | 22.77892 | -82.47641 | 6264 ft | 226 kts | 296° |
| 2026-04-27 19:23 | 22.78550 | -82.49184 | 5961 ft | 224 kts | 296° |
| 2026-04-27 19:23 | 22.79190 | -82.50700 | 5638 ft | 222 kts | 296° |
| 2026-04-27 19:23 | 22.80066 | -82.52040 | 5333 ft | 220 kts | 321° |
| 2026-04-27 19:24 | 22.81303 | -82.53067 | 5067 ft | 225 kts | 327° |
| 2026-04-27 19:24 | 22.82612 | -82.54014 | 4799 ft | 226 kts | 328° |
| 2026-04-27 19:24 | 22.83920 | -82.54944 | 4516 ft | 228 kts | 327° |
| 2026-04-27 19:24 | 22.85249 | -82.55899 | 4180 ft | 231 kts | 330° |
| 2026-04-27 19:25 | 22.86794 | -82.56298 | 3795 ft | 231 kts | 9° |
| 2026-04-27 19:25 | 22.88280 | -82.55666 | 3456 ft | 228 kts | 28° |
| 2026-04-27 19:25 | 22.89605 | -82.54768 | 3125 ft | 227 kts | 35° |
| 2026-04-27 19:25 | 22.90711 | -82.53552 | 2782 ft | 227 kts | 52° |
| 2026-04-27 19:26 | 22.91618 | -82.52144 | 2409 ft | 226 kts | 56° |
| 2026-04-27 19:26 | 22.92466 | -82.50757 | 2074 ft | 211 kts | 55° |
| 2026-04-27 19:26 | 22.93238 | -82.49496 | 1825 ft | 192 kts | 57° |
| 2026-04-27 19:26 | 22.93924 | -82.48344 | 1601 ft | 166 kts | 53° |
| 2026-04-27 19:27 | 22.94549 | -82.47401 | 1293 ft | 146 kts | 51° |
| 2026-04-27 19:27 | 22.95130 | -82.46531 | 1100 ft | 138 kts | 51° |
| 2026-04-27 19:27 | 22.95702 | -82.45679 | 959 ft | 142 kts | 50° |
| 2026-04-27 19:27 | 22.96288 | -82.44782 | 852 ft | 145 kts | 49° |
| 2026-04-27 19:28 | 22.96898 | -82.43904 | 610 ft | 147 kts | 46° |
| 2026-04-27 19:28 | 22.97523 | -82.43010 | 419 ft | 154 kts | 51° |
| 2026-04-27 19:28 | 22.98110 | -82.42106 | 226 ft | 131 kts | 48° |
| 2026-04-27 19:28 | 22.98559 | -82.41450 | 217 ft | 85 kts | 54° |
| 2026-04-27 19:29 | 22.98825 | -82.41048 | 214 ft | 54 kts | 54° |
| 2026-04-27 19:29 | 22.99027 | -82.40751 | 212 ft | 27 kts | 56° |
| 2026-04-27 19:29 | 22.99130 | -82.40586 | 218 ft | 28 kts | 56° |
| 2026-04-27 19:29 | 22.99270 | -82.40425 | 213 ft | 32 kts | 17° |
| 2026-04-27 19:30 | 22.99421 | -82.40398 | 217 ft | 16 kts | 8° |
| 2026-04-27 19:30 | 22.99536 | -82.40439 | 215 ft | 20 kts | 327° |
| 2026-04-27 19:30 | 22.99655 | -82.40523 | 218 ft | 11 kts | 319° |
| 2026-04-27 19:30 | 22.99665 | -82.40610 | 215 ft | 8 kts | 265° |
| 2026-04-27 19:31 | 22.99665 | -82.40618 | 215 ft | 0 kts | 265° |